createdAt,value
2023-01-29T00:00:16.310Z,2.55
2023-01-29T00:01:15.899Z,2.54
2023-01-29T00:02:15.936Z,2.54
2023-01-29T00:03:15.968Z,2.54
2023-01-29T00:04:15.894Z,2.55
2023-01-29T00:05:27.502Z,2.55
2023-01-29T00:06:16.890Z,2.54
2023-01-29T00:07:15.864Z,2.54
2023-01-29T00:08:15.851Z,2.54
2023-01-29T00:09:15.918Z,2.54
2023-01-29T00:10:16.150Z,2.54
2023-01-29T00:11:15.812Z,2.53
2023-01-29T00:12:15.773Z,2.54
2023-01-29T00:13:15.761Z,2.53
2023-01-29T00:14:15.757Z,2.53
2023-01-29T00:15:15.734Z,2.54
2023-01-29T00:16:15.713Z,2.55
2023-01-29T00:17:15.774Z,2.55
2023-01-29T00:18:15.695Z,2.54
2023-01-29T00:19:15.683Z,2.54
2023-01-29T00:20:16.002Z,2.55
2023-01-29T00:21:15.649Z,2.57
2023-01-29T00:22:15.611Z,2.57
2023-01-29T00:23:15.591Z,2.56
2023-01-29T00:24:15.619Z,2.55
2023-01-29T00:25:15.552Z,2.57
2023-01-29T00:43:15.546Z,2.51
2023-01-29T00:44:15.559Z,2.51
2023-01-29T00:45:15.556Z,2.53
2023-01-29T00:46:15.587Z,2.54
2023-01-29T00:47:15.575Z,2.51
2023-01-29T00:48:15.588Z,2.51
2023-01-29T00:49:15.584Z,2.51
2023-01-29T00:50:15.894Z,2.50
2023-01-29T00:51:15.584Z,2.48
2023-01-29T00:52:15.606Z,2.47
2023-01-29T00:53:15.595Z,2.47
2023-01-29T00:54:15.606Z,2.46
2023-01-29T00:55:15.585Z,2.47
2023-01-29T00:56:16.574Z,2.49
2023-01-29T00:57:15.589Z,2.50
2023-01-29T00:58:15.675Z,2.48
2023-01-29T00:59:15.614Z,2.46
2023-01-29T01:00:16.008Z,2.48
2023-01-29T01:01:15.678Z,2.48
2023-01-29T01:02:15.718Z,2.49
2023-01-29T01:03:15.683Z,2.50
2023-01-29T01:04:15.717Z,2.48
2023-01-29T01:05:15.739Z,2.47
2023-01-29T01:06:15.747Z,2.47
2023-01-29T01:07:15.769Z,2.45
2023-01-29T01:28:16.121Z,2.40
2023-01-29T01:53:21.219Z,2.26
2023-01-29T01:54:21.447Z,2.25
2023-01-29T01:55:21.690Z,2.27
2023-01-29T01:56:21.937Z,2.26
2023-01-29T01:57:22.184Z,2.25
2023-01-29T01:58:22.459Z,2.26
2023-01-29T01:59:22.776Z,2.25
2023-01-29T02:00:22.939Z,2.24
2023-01-29T02:01:25.651Z,2.24
2023-01-29T02:02:23.383Z,2.26
2023-01-29T02:03:23.376Z,2.25
2023-01-29T02:04:23.384Z,2.26
2023-01-29T02:05:23.420Z,2.27
2023-01-29T02:06:23.469Z,2.28
2023-01-29T02:07:23.494Z,2.27
2023-01-29T02:08:23.541Z,2.26
2023-01-29T02:09:23.580Z,2.25
2023-01-29T02:10:23.613Z,2.23
2023-01-29T02:11:23.643Z,2.22
2023-01-29T02:12:23.749Z,2.21
2023-01-29T02:13:23.708Z,2.21
2023-01-29T02:14:23.705Z,2.20
2023-01-29T02:15:23.741Z,2.20
2023-01-29T02:16:23.764Z,2.21
2023-01-29T02:17:23.865Z,2.21
2023-01-29T02:18:23.832Z,2.22
2023-01-29T02:19:23.866Z,2.24
2023-01-29T02:20:23.890Z,2.23
2023-01-29T02:21:23.933Z,2.21
2023-01-29T02:22:23.961Z,2.22
2023-01-29T02:23:24.010Z,2.23
2023-01-29T02:24:24.057Z,2.21
2023-01-29T02:25:24.102Z,2.21
2023-01-29T03:20:31.197Z,2.17
2023-01-29T03:21:31.433Z,2.14
2023-01-29T03:22:31.633Z,2.13
2023-01-29T03:23:31.848Z,2.12
2023-01-29T03:24:32.143Z,2.12
2023-01-29T03:25:32.349Z,2.05
2023-01-29T03:26:32.562Z,2.01
2023-01-29T03:27:32.803Z,2.01
2023-01-29T03:28:33.062Z,2.03
2023-01-29T03:29:33.310Z,2.04
2023-01-29T04:02:41.103Z,2.08
2023-01-29T04:03:41.348Z,2.09
2023-01-29T04:04:41.578Z,2.09
2023-01-29T04:05:41.811Z,2.08
2023-01-29T04:06:42.048Z,2.08
2023-01-29T04:07:42.280Z,2.08
2023-01-29T04:08:42.525Z,2.08
2023-01-29T04:09:42.708Z,2.06
2023-01-29T04:10:42.998Z,2.04
2023-01-29T04:11:43.237Z,2.01
2023-01-29T04:12:43.446Z,1.98
2023-01-29T04:13:43.705Z,1.98
2023-01-29T04:14:43.916Z,1.99
2023-01-29T04:15:44.153Z,1.98
2023-01-29T04:16:44.432Z,1.98
2023-01-29T04:17:44.643Z,1.97
2023-01-29T04:18:44.864Z,1.97
2023-01-29T04:19:45.114Z,1.98
2023-01-29T04:20:45.364Z,1.99
2023-01-29T04:44:51.177Z,1.90
2023-01-29T04:45:51.443Z,1.89
2023-01-29T04:46:51.708Z,1.87
2023-01-29T04:47:51.962Z,1.89
2023-01-29T04:48:52.231Z,1.93
2023-01-29T04:49:52.486Z,1.94
2023-01-29T05:26:01.084Z,1.87
2023-01-29T05:27:01.309Z,1.87
2023-01-29T05:28:01.573Z,1.87
2023-01-29T05:29:01.795Z,1.88
2023-01-29T05:30:02.047Z,1.88
2023-01-29T05:31:02.388Z,1.86
2023-01-29T05:32:02.562Z,1.86
2023-01-29T05:33:02.815Z,1.86
2023-01-29T05:34:03.030Z,1.88
2023-01-29T05:35:03.254Z,1.88
2023-01-29T05:36:04.123Z,1.87
2023-01-29T05:37:03.478Z,1.89
2023-01-29T05:38:03.499Z,1.88
2023-01-29T05:39:03.522Z,1.87
2023-01-29T05:40:03.532Z,1.86
2023-01-29T05:41:03.567Z,1.85
2023-01-29T05:42:03.600Z,1.83
2023-01-29T05:43:03.611Z,1.83
2023-01-29T05:44:03.649Z,1.82
2023-01-29T05:45:03.700Z,1.80
2023-01-29T05:46:03.838Z,1.79
2023-01-29T05:47:03.816Z,1.79
2023-01-29T05:48:03.760Z,1.80
2023-01-29T05:49:03.791Z,1.82
2023-01-29T05:50:03.830Z,1.82
2023-01-29T05:51:04.612Z,1.85
2023-01-29T05:52:03.875Z,1.84
2023-01-29T05:53:03.931Z,1.84
2023-01-29T05:54:03.945Z,1.83
2023-01-29T05:55:03.986Z,1.85
2023-01-29T05:56:04.009Z,1.85
2023-01-29T05:57:04.023Z,1.85
2023-01-29T05:58:05.893Z,1.86
2023-01-29T05:59:04.081Z,1.79
2023-01-29T06:00:04.112Z,1.70
2023-01-29T06:01:04.138Z,1.65
2023-01-29T06:02:04.261Z,1.62
2023-01-29T06:03:04.323Z,1.62
2023-01-29T06:04:04.274Z,1.58
2023-01-29T06:05:04.394Z,1.51
2023-01-29T06:06:04.369Z,1.48
2023-01-29T06:07:04.424Z,1.46
2023-01-29T06:08:04.477Z,1.48
2023-01-29T06:09:04.562Z,1.52
2023-01-29T06:10:04.602Z,1.39
2023-01-29T06:11:04.667Z,1.13
2023-01-29T06:12:04.696Z,1.03
2023-01-29T06:13:04.767Z,0.92
2023-01-29T06:14:04.817Z,0.88
2023-01-29T06:15:04.852Z,0.85
2023-01-29T06:16:04.892Z,0.87
2023-01-29T06:17:04.915Z,0.91
2023-01-29T06:18:04.962Z,0.87
2023-01-29T06:19:05.084Z,0.75
2023-01-29T06:20:05.185Z,0.62
2023-01-29T06:21:05.182Z,0.64
2023-01-29T06:22:05.181Z,0.60
2023-01-29T06:23:05.225Z,0.44
2023-01-29T06:24:05.299Z,0.44
2023-01-29T06:25:05.327Z,0.47
2023-01-29T06:26:05.361Z,0.51
2023-01-29T06:27:05.458Z,0.43
2023-01-29T06:28:05.391Z,0.37
2023-01-29T06:29:05.406Z,0.38
2023-01-29T06:30:05.429Z,0.29
2023-01-29T06:31:22.045Z,0.16
2023-01-29T06:32:06.585Z,0.14
2023-01-29T06:33:05.517Z,0.17
2023-01-29T06:34:05.524Z,-0.08
2023-01-29T06:35:05.542Z,-0.06
2023-01-29T06:36:05.550Z,-0.11
2023-01-29T06:37:05.573Z,-0.07
2023-01-29T06:38:05.599Z,-0.16
2023-01-29T06:39:05.613Z,-0.14
2023-01-29T06:40:05.640Z,-0.15
2023-01-29T06:41:05.663Z,-0.08
2023-01-29T06:42:05.687Z,-0.13
2023-01-29T06:43:05.706Z,-0.28
2023-01-29T06:44:05.705Z,-0.31
2023-01-29T06:45:05.725Z,-0.23
2023-01-29T06:46:05.738Z,-0.28
2023-01-29T06:47:05.782Z,-0.30
2023-01-29T06:48:05.754Z,-0.28
2023-01-29T06:49:05.788Z,-0.24
2023-01-29T06:50:05.833Z,-0.16
2023-01-29T06:51:06.006Z,-0.20
2023-01-29T06:52:06.182Z,-0.21
2023-01-29T06:53:06.478Z,-0.15
2023-01-29T06:54:06.735Z,-0.16
2023-01-29T06:55:06.982Z,-0.20
2023-01-29T06:56:07.238Z,-0.22
2023-01-29T06:57:07.484Z,-0.21
2023-01-29T06:58:07.762Z,-0.32
2023-01-29T06:59:08.010Z,-0.38
2023-01-29T07:00:08.258Z,-0.38
2023-01-29T07:01:08.554Z,-0.40
2023-01-29T07:02:08.804Z,-0.43
2023-01-29T07:03:08.979Z,-0.37
2023-01-29T07:04:09.207Z,-0.37
2023-01-29T07:05:09.477Z,-0.37
2023-01-29T07:06:09.710Z,-0.47
2023-01-29T07:07:09.965Z,-0.46
2023-01-29T07:12:11.283Z,-0.56
2023-01-29T07:13:11.535Z,-0.66
2023-01-29T07:14:11.789Z,-0.62
2023-01-29T07:15:12.047Z,-0.64
2023-01-29T07:16:12.332Z,-0.64
2023-01-29T07:54:21.100Z,-0.59
2023-01-29T07:55:21.358Z,-0.49
2023-01-29T07:56:21.607Z,-0.41
2023-01-29T07:57:21.940Z,-0.40
2023-01-29T07:58:22.160Z,-0.38
2023-01-29T07:59:22.432Z,-0.49
2023-01-29T08:00:22.700Z,-0.60
2023-01-29T08:01:23.079Z,-0.70
2023-01-29T08:02:23.411Z,-0.75
2023-01-29T08:03:23.586Z,-0.84
2023-01-29T08:04:23.864Z,-0.87
2023-01-29T08:05:24.138Z,-0.79
2023-01-29T08:06:24.408Z,-0.76
2023-01-29T08:07:24.681Z,-0.98
2023-01-29T08:08:24.954Z,-1.03
2023-01-29T08:09:25.230Z,-0.98
2023-01-29T08:10:25.483Z,-1.12
2023-01-29T08:11:25.781Z,-1.10
2023-01-29T08:12:26.040Z,-1.12
2023-01-29T08:13:26.314Z,-1.23
2023-01-29T08:14:26.587Z,-1.29
2023-01-29T08:15:26.847Z,-1.27
2023-01-29T08:16:27.171Z,-1.29
2023-01-29T08:17:27.394Z,-1.35
2023-01-29T08:18:27.724Z,-1.43
2023-01-29T08:19:27.926Z,-1.40
2023-01-29T08:20:28.356Z,-1.38
2023-01-29T08:21:28.344Z,-1.39
2023-01-29T08:22:28.725Z,-1.34
2023-01-29T08:23:28.995Z,-1.37
2023-01-29T08:24:41.535Z,-1.34
2023-01-29T08:25:30.361Z,-1.33
2023-01-29T08:26:29.332Z,-1.30
2023-01-29T08:27:29.366Z,-1.33
2023-01-29T08:28:29.381Z,-1.37
2023-01-29T08:29:29.421Z,-1.31
2023-01-29T08:30:29.454Z,-1.35
2023-01-29T08:31:29.581Z,-1.28
2023-01-29T08:32:29.507Z,-1.18
2023-01-29T08:33:38.714Z,-1.19
2023-01-29T08:54:31.112Z,-0.71
2023-01-29T08:55:31.179Z,-0.69
2023-01-29T08:56:31.225Z,-0.60
2023-01-29T08:57:31.262Z,-0.48
2023-01-29T08:58:31.373Z,-0.40
2023-01-29T08:59:31.412Z,-0.34
2023-01-29T09:00:31.520Z,-0.31
2023-01-29T09:01:31.816Z,-0.43
2023-01-29T09:02:31.981Z,-0.41
2023-01-29T09:03:32.160Z,-0.46
2023-01-29T09:04:32.396Z,-0.51
2023-01-29T09:05:32.638Z,-0.43
2023-01-29T09:06:32.880Z,-0.34
2023-01-29T09:07:33.119Z,-0.29
2023-01-29T09:08:33.368Z,-0.18
2023-01-29T09:09:33.564Z,-0.04
2023-01-29T09:10:33.719Z,-0.02
2023-01-29T09:11:34.038Z,-0.15
2023-01-29T09:12:34.307Z,-0.20
2023-01-29T09:13:34.532Z,-0.25
2023-01-29T09:14:34.734Z,-0.29
2023-01-29T09:15:34.937Z,-0.17
2023-01-29T09:16:35.275Z,-0.06
2023-01-29T09:17:35.543Z,0.07
2023-01-29T09:40:41.186Z,0.44
2023-01-29T09:41:41.524Z,0.42
2023-01-29T09:42:41.769Z,0.41
2023-01-29T09:43:42.004Z,0.51
2023-01-29T09:44:42.204Z,0.45
2023-01-29T09:45:42.433Z,0.43
2023-01-29T09:46:42.661Z,0.46
2023-01-29T09:47:42.995Z,0.44
2023-01-29T09:48:43.212Z,0.21
2023-01-29T09:49:43.458Z,0.23
2023-01-29T09:50:43.796Z,0.20
2023-01-29T09:51:44.013Z,0.08
2023-01-29T09:52:44.326Z,0.13
2023-01-29T10:21:51.212Z,0.68
2023-01-29T10:23:51.544Z,0.57
2023-01-29T11:06:01.223Z,1.81
2023-01-29T11:07:01.458Z,1.87
2023-01-29T11:08:01.666Z,1.89
2023-01-29T11:09:01.978Z,1.95
2023-01-29T11:10:02.169Z,2.01
2023-01-29T11:11:02.415Z,2.10
2023-01-29T11:12:02.587Z,2.16
2023-01-29T11:13:02.833Z,2.21
2023-01-29T11:14:03.080Z,2.23
2023-01-29T11:15:03.272Z,2.17
2023-01-29T11:16:03.482Z,2.00
2023-01-29T11:17:03.783Z,1.99
2023-01-29T11:18:03.947Z,2.00
2023-01-29T11:19:04.130Z,2.03
2023-01-29T11:20:04.322Z,1.99
2023-01-29T11:21:04.533Z,2.00
2023-01-29T11:22:04.728Z,2.07
2023-01-29T11:23:06.760Z,2.05
2023-01-29T11:24:05.087Z,2.03
2023-01-29T12:03:11.209Z,3.10
2023-01-29T12:04:11.371Z,2.97
2023-01-29T12:05:11.595Z,2.85
2023-01-29T12:06:11.937Z,2.85
2023-01-29T12:07:12.055Z,2.82
2023-01-29T12:08:12.199Z,2.89
2023-01-29T12:09:12.459Z,2.92
2023-01-29T12:53:21.205Z,4.79
2023-01-29T12:54:21.428Z,4.86
2023-01-29T12:55:22.148Z,4.91
2023-01-29T13:51:31.279Z,6.20
2023-01-29T13:52:31.372Z,6.20
2023-01-29T13:53:31.609Z,6.19
2023-01-29T13:54:31.787Z,6.20
2023-01-29T13:55:31.972Z,6.19
2023-01-29T13:56:32.155Z,6.19
2023-01-29T13:57:32.364Z,6.19
2023-01-29T13:58:32.552Z,6.18
2023-01-29T13:59:32.749Z,6.18
2023-01-29T14:00:32.944Z,6.16
2023-01-29T14:01:33.168Z,6.15
2023-01-29T14:02:33.384Z,6.15
2023-01-29T14:03:56.125Z,6.15
2023-01-29T14:05:33.367Z,6.13
2023-01-29T14:06:33.294Z,6.14
2023-01-29T14:07:33.216Z,6.16
2023-01-29T14:08:33.193Z,6.16
2023-01-29T14:09:33.126Z,6.15
2023-01-29T14:10:33.037Z,6.14
2023-01-29T14:11:32.958Z,6.13
2023-01-29T14:12:33.111Z,6.13
2023-01-29T14:13:33.267Z,6.13
2023-01-29T14:50:41.061Z,5.75
2023-01-29T14:51:41.247Z,5.76
2023-01-29T14:52:41.451Z,5.76
2023-01-29T14:53:41.671Z,5.75
2023-01-29T14:54:41.881Z,5.75
2023-01-29T14:55:42.107Z,5.74
2023-01-29T14:56:42.319Z,5.72
2023-01-29T14:57:42.521Z,5.71
2023-01-29T14:58:42.741Z,5.70
2023-01-29T14:59:42.945Z,5.70
2023-01-29T15:00:43.183Z,5.68
2023-01-29T15:01:43.473Z,5.69
2023-01-29T15:02:43.701Z,5.68
2023-01-29T15:03:43.898Z,5.69
2023-01-29T15:04:44.104Z,5.67
2023-01-29T15:05:44.324Z,5.65
2023-01-29T15:06:44.520Z,5.64
2023-01-29T15:07:44.736Z,5.63
2023-01-29T15:08:44.951Z,5.61
2023-01-29T15:09:45.233Z,5.58
2023-01-29T15:10:45.366Z,5.56
2023-01-29T15:11:45.570Z,5.52
2023-01-29T15:12:45.789Z,5.52
2023-01-29T15:13:45.989Z,5.50
2023-01-29T15:14:46.190Z,5.50
2023-01-29T15:15:46.445Z,5.49
2023-01-29T15:16:46.644Z,5.48
2023-01-29T15:17:46.867Z,5.47
2023-01-29T15:18:47.076Z,5.43
2023-01-29T15:19:47.299Z,5.44
2023-01-29T15:20:47.517Z,5.42
2023-01-29T15:21:47.728Z,5.40
2023-01-29T15:22:47.949Z,5.39
2023-01-29T15:23:48.165Z,5.36
2023-01-29T15:24:48.378Z,5.33
2023-01-29T15:25:48.597Z,5.30
2023-01-29T15:26:48.859Z,5.29
2023-01-29T15:27:48.977Z,5.28
2023-01-29T15:28:58.512Z,5.27
2023-01-29T15:29:50.137Z,5.22
2023-01-29T15:30:49.169Z,5.22
2023-01-29T15:31:49.185Z,5.19
2023-01-29T15:32:48.964Z,5.18
2023-01-29T15:33:49.027Z,5.15
2023-01-29T15:34:48.958Z,5.12
2023-01-29T15:35:51.645Z,5.11
2023-01-29T15:36:48.861Z,5.09
2023-01-29T15:37:48.785Z,5.07
2023-01-29T15:38:48.752Z,5.05
2023-01-29T15:39:48.685Z,5.05
2023-01-29T15:40:48.613Z,5.01
2023-01-29T15:41:48.687Z,4.98
2023-01-29T15:42:48.706Z,4.94
2023-01-29T15:43:48.588Z,4.93
2023-01-29T15:44:48.517Z,4.91
2023-01-29T15:45:48.455Z,4.89
2023-01-29T15:46:48.370Z,4.89
2023-01-29T15:47:48.346Z,4.87
2023-01-29T15:48:48.272Z,4.85
2023-01-29T15:49:48.448Z,4.79
2023-01-29T15:50:48.656Z,4.75
2023-01-29T15:51:48.882Z,4.72
2023-01-29T15:52:49.008Z,4.68
2023-01-29T15:53:49.237Z,4.66
2023-01-29T15:54:49.464Z,4.61
2023-01-29T15:55:49.711Z,4.58
2023-01-29T15:56:49.862Z,4.54
2023-01-29T15:57:50.086Z,4.50
2023-01-29T15:58:50.323Z,4.47
2023-01-29T15:59:50.459Z,4.44
2023-01-29T16:00:50.686Z,4.40
2023-01-29T16:01:50.947Z,4.37
2023-01-29T16:02:51.197Z,4.36
2023-01-29T16:03:51.430Z,4.35
2023-01-29T16:04:51.577Z,4.33
2023-01-29T16:05:51.833Z,4.32
2023-01-29T16:06:51.983Z,4.31
2023-01-29T16:07:52.244Z,4.29
2023-01-29T16:08:52.396Z,4.27
2023-01-29T16:09:52.638Z,4.26
2023-01-29T16:10:52.787Z,4.23
2023-01-29T16:11:53.030Z,4.20
2023-01-29T16:12:53.268Z,4.17
2023-01-29T16:13:53.409Z,4.15
2023-01-29T16:14:53.670Z,4.12
2023-01-29T16:15:53.930Z,4.08
2023-01-29T16:16:54.109Z,4.08
2023-01-29T16:17:54.318Z,4.07
2023-01-29T16:19:00.377Z,4.07
2023-01-29T16:19:55.411Z,4.04
2023-01-29T16:20:54.365Z,4.01
2023-01-29T16:21:54.334Z,3.96
2023-01-29T16:22:54.278Z,3.94
2023-01-29T16:23:54.247Z,3.92
2023-01-29T16:24:54.204Z,3.88
2023-01-29T16:25:54.168Z,3.88
2023-01-29T16:26:54.123Z,3.85
2023-01-29T16:27:54.083Z,3.83
2023-01-29T16:28:54.039Z,3.81
2023-01-29T16:29:54.036Z,3.78
2023-01-29T16:30:54.197Z,3.76
2023-01-29T16:31:55.194Z,3.73
2023-01-29T16:32:53.997Z,3.72
2023-01-29T16:33:53.965Z,3.71
2023-01-29T16:34:53.914Z,3.68
2023-01-29T16:35:53.899Z,3.66
2023-01-29T16:36:54.699Z,3.64
2023-01-29T16:37:53.809Z,3.62
2023-01-29T16:38:53.769Z,3.61
2023-01-29T16:39:53.949Z,3.59
2023-01-29T16:40:54.150Z,3.57
2023-01-29T16:41:54.337Z,3.55
2023-01-29T16:42:54.508Z,3.53
2023-01-29T16:43:54.715Z,3.51
2023-01-29T16:44:54.890Z,3.49
2023-01-29T16:45:55.120Z,3.48
2023-01-29T16:46:55.350Z,3.46
2023-01-29T16:47:55.590Z,3.45
2023-01-29T16:48:55.766Z,3.43
2023-01-29T16:49:56.023Z,3.42
2023-01-29T16:50:56.279Z,3.40
2023-01-29T16:51:56.452Z,3.39
2023-01-29T16:52:57.705Z,3.36
2023-01-29T16:53:56.693Z,3.36
2023-01-29T16:54:56.725Z,3.35
2023-01-29T16:55:56.772Z,3.34
2023-01-29T16:56:56.804Z,3.33
2023-01-29T16:57:56.835Z,3.32
2023-01-29T16:58:56.954Z,3.29
2023-01-29T16:59:56.898Z,3.28
2023-01-29T17:00:56.958Z,3.27
2023-01-29T17:01:56.953Z,3.26
2023-01-29T17:02:56.988Z,3.25
2023-01-29T17:03:57.136Z,3.22
2023-01-29T17:04:57.315Z,3.20
2023-01-29T17:05:57.521Z,3.20
2023-01-29T17:06:57.724Z,3.18
2023-01-29T17:07:57.944Z,3.15
2023-01-29T17:08:58.187Z,3.13
2023-01-29T17:09:58.386Z,3.12
2023-01-29T17:23:01.205Z,2.88
2023-01-29T17:24:01.476Z,2.86
2023-01-29T17:25:01.677Z,2.85
2023-01-29T17:26:01.888Z,2.83
2023-01-29T17:27:02.136Z,2.80
2023-01-29T17:28:02.420Z,2.78
2023-01-29T17:29:02.609Z,2.76
2023-01-29T17:30:02.824Z,2.75
2023-01-29T17:31:06.762Z,2.74
2023-01-29T17:32:03.031Z,2.72
2023-01-29T17:33:02.983Z,2.71
2023-01-29T17:34:02.933Z,2.68
2023-01-29T17:35:02.916Z,2.65
2023-01-29T17:36:02.965Z,2.63
2023-01-29T17:37:02.968Z,2.62
2023-01-29T17:38:02.921Z,2.66
2023-01-29T17:39:02.898Z,2.64
2023-01-29T17:40:05.261Z,2.62
2023-01-29T17:41:02.946Z,2.62
2023-01-29T17:42:02.952Z,2.60
2023-01-29T17:43:02.939Z,2.60
2023-01-29T17:44:02.954Z,2.57
2023-01-29T17:45:02.948Z,2.53
2023-01-29T17:47:02.923Z,2.48
2023-01-29T17:48:02.917Z,2.47
2023-01-29T17:49:02.901Z,2.46
2023-01-29T18:15:02.720Z,2.24
2023-01-29T20:22:11.078Z,1.26
2023-01-29T20:23:11.131Z,1.27
2023-01-29T20:24:11.199Z,1.27
2023-01-29T20:25:11.263Z,1.23
2023-01-29T21:04:13.455Z,0.92
2023-01-29T21:06:13.512Z,0.88
2023-01-29T21:07:13.538Z,0.88
2023-01-29T21:08:13.583Z,0.88
2023-01-29T21:09:13.638Z,0.84
2023-01-29T21:11:13.771Z,0.86
2023-01-29T21:12:13.805Z,0.89
2023-01-29T21:13:13.872Z,0.89
2023-01-29T21:14:13.944Z,0.90
2023-01-29T21:15:14.024Z,0.91
2023-01-29T21:16:14.151Z,0.91
2023-01-29T21:17:14.152Z,0.91
2023-01-29T21:18:14.225Z,0.92
2023-01-29T21:19:14.302Z,0.93
2023-01-29T21:20:14.550Z,0.92
2023-01-29T21:21:14.442Z,0.92
2023-01-29T21:22:14.510Z,0.90
2023-01-29T21:23:14.574Z,0.89
2023-01-29T21:24:14.632Z,0.89
2023-01-29T21:25:14.707Z,0.85
2023-01-29T21:26:14.801Z,0.82
2023-01-29T21:27:14.809Z,0.80
2023-01-29T21:28:14.867Z,0.79
2023-01-29T21:29:14.902Z,0.79
2023-01-29T21:30:15.288Z,0.79
2023-01-29T23:09:21.164Z,0.08
2023-01-29T23:10:21.431Z,0.08
2023-01-29T23:11:21.694Z,0.09
2023-01-29T23:12:21.945Z,0.10
2023-01-29T23:13:22.203Z,0.08
2023-01-29T23:14:22.472Z,0.08
2023-01-29T23:15:22.729Z,0.08
2023-01-29T23:16:23.071Z,0.08
2023-01-29T23:17:23.239Z,0.05
2023-01-29T23:18:23.506Z,0.07
2023-01-29T23:19:23.765Z,0.02
2023-01-29T23:20:24.012Z,-0.00
2023-01-29T23:21:24.265Z,-0.01
2023-01-29T23:22:24.542Z,-0.02
2023-01-29T23:23:24.824Z,-0.06
2023-01-29T23:24:25.089Z,-0.08
2023-01-29T23:25:25.359Z,-0.10
2023-01-29T23:47:31.215Z,-0.63
2023-01-29T23:48:31.461Z,-0.56
2023-01-29T23:49:31.738Z,-0.51
2023-01-29T23:50:32.007Z,-0.48
2023-01-29T23:51:32.250Z,-0.61
2023-01-29T23:52:32.418Z,-0.69
2023-01-29T23:53:32.663Z,-0.72
2023-01-29T23:54:32.939Z,-0.79
2023-01-29T23:55:33.228Z,-0.75
2023-01-29T23:56:33.476Z,-0.75
2023-01-29T23:57:33.697Z,-0.78
2023-01-29T23:58:33.910Z,-0.84
2023-01-29T23:59:34.140Z,-0.80
